This is the latest recevied weather packets stored in our database for station/object KC4JIR. If no packets are shown the sender has not sent any weather packets the latest 10 day(s).
| Time | Temp. | Humidity | Pressure | Rain* | Wind** | Luminosity | Snow |
|---|---|---|---|---|---|---|---|
| 1787867023 | 22.78° C | 99% | 1012.6 hPa | 0 mm | - | 28 W/m² | - |
| 1787866717 | 22.22° C | 99% | 1012.7 hPa | 0 mm | - | 27 W/m² | - |
| 1787866416 | 22.22° C | 99% | 1012.5 hPa | 0 mm | - | 31 W/m² | - |
| 1787866111 | 22.22° C | 99% | 1012.5 hPa | 0 mm | - | 26 W/m² | - |
| 1787865806 | 22.22° C | 99% | 1012.6 hPa | 0 mm | - | 23 W/m² | - |
| 1787865501 | 22.22° C | 99% | 1012.5 hPa | 0 mm | - | 23 W/m² | - |
| 1787865196 | 22.22° C | 99% | 1012.6 hPa | 0 mm | - | 25 W/m² | - |
| 1787864893 | 22.22° C | 99% | 1012.8 hPa | 1.78 mm | - | 25 W/m² | - |
| 1787864592 | 22.22° C | 99% | 1012.7 hPa | 4.83 mm | - | 20 W/m² | - |
| 1787864287 | 22.22° C | 99% | 1012.5 hPa | 7.11 mm | - | 16 W/m² | - |
| 1787863981 | 22.22° C | 99% | 1012.6 hPa | 8.89 mm | - | 12 W/m² | - |
| 1787863680 | 22.78° C | 99% | 1012.6 hPa | 10.67 mm | - | 10 W/m² | - |
| 1787863379 | 23.33° C | 99% | 1012.8 hPa | 7.11 mm | - | 9 W/m² | - |
| 1787863075 | 23.33° C | 99% | 1012.9 hPa | 4.83 mm | - | 4 W/m² | - |
| 1787862770 | 23.89° C | 99% | 1012.7 hPa | 6.1 mm | - | 2 W/m² | - |
| 1787862469 | 23.89° C | 99% | 1013.1 hPa | 6.1 mm | - | 0 W/m² | - |
| 1787862165 | 24.44° C | 99% | 1012.5 hPa | 6.1 mm | - | 3 W/m² | - |
| 1787861860 | 24.44° C | 99% | 1012.3 hPa | 7.87 mm | - | 6 W/m² | - |
| 1787861559 | 24.44° C | 99% | 1012 hPa | 18.54 mm | - | 11 W/m² | - |
| 1787861253 | 24.44° C | 99% | 1012.3 hPa | 34.8 mm | - | 14 W/m² | - |
| 1787860953 | 24.44° C | 99% | 1012.2 hPa | 37.85 mm | - | 17 W/m² | - |
| 1787860647 | 25° C | 99% | 1012.2 hPa | 25.91 mm | - | 22 W/m² | - |
| 1787860342 | 25° C | 99% | 1011.9 hPa | 18.54 mm | - | 29 W/m² | - |
| 1787860037 | 25° C | 98% | 1012 hPa | 24.64 mm | - | 29 W/m² | - |
| 1787859128 | 27.78° C | 86% | 1012 hPa | 0 mm | - | 124 W/m² | - |
* Rain latest hour (hover to see other rain measurements)
** Current wind speed in m/s (hover to see current wind gust speed)